ellysage.com alexa rank chart, ellysage.com alexa rank daily changes

ellysage.com alexa rank chart, ellysage.com alexa rank daily changes

ellysage.com
Actual rank:
740 797

RANK HISTORY

Date Rank Diff
2017/01/23 740 797 +20 367
2017/01/22 720 430 +1 468
2017/01/21 718 962 -10 011
2017/01/20 728 973 +8 010
2017/01/19 720 963 -23 930
2017/01/18 744 893 +3 262
2017/01/17 741 631 +24 225
2017/01/16 717 406 -2 912
2017/01/15 720 318 -25 463
2017/01/14 745 781 -6 382
2017/01/13 752 163 -26 754
2017/01/12 778 917 -40 744
2017/01/11 819 661 +27 981
2017/01/10 791 680 +4 095
2017/01/09 787 585 -2 393
2017/01/08 789 978 -192
2017/01/07 790 170 +1 886
2017/01/06 788 284 +1 025
2017/01/05 787 259 -31 051
2017/01/04 818 310 +41 900
2017/01/03 776 410 -6 528
2017/01/02 782 938 +13 716
2017/01/01 769 222 -25 480
2016/12/31 794 702 +12 338
2016/12/30 782 364 +5 510
2016/12/29 776 854 -40 902
2016/12/28 817 756 -29 131
2016/12/27 846 887 +25 995
2016/12/26 820 892 +18 459
2016/12/25 802 433 -55 445
2016/12/24 857 878 +23 787
2016/12/23 834 091 -34 422
2016/12/22 868 513 +9 060
2016/12/21 859 453 -37 002
2016/12/20 896 455 +2 194
2016/12/19 894 261 +30 655
2016/12/18 863 606 +10 378
2016/12/17 853 228 -53 150
2016/12/16 906 378 -3 688
2016/12/15 910 066 -30 616
2016/12/14 940 682 +7 142
2016/12/13 933 540 +18 146
2016/12/12 915 394 +54 659
2016/12/11 860 735 -37 595
2016/12/10 898 330 -2 849
2016/12/09 901 179 -41 763
2016/12/08 942 942 -42 692
2016/12/07 985 634 -2 942
2016/12/05 988 576 +48 354
2016/12/04 940 222 +4 586
2016/12/02 935 636 -32 053
2016/12/01 967 689 -24 125
2016/11/30 991 814 +63 053
2016/11/29 928 761 -3 132
2016/11/28 931 893 +27 848
2016/11/27 904 045 +36 865
2016/11/26 867 180 +23 258
2016/11/25 843 922 +159 821
2016/11/24 684 101

WIDGET FOR YOUR SITE

DOMAINS WITH THE NEAREST RANK

Domain Rank
tolkien.ru 740 792
kinetic-sand-ratgeber.de 740 793
newmarkethealth.com 740 794
bim-bad.ru 740 795
pm-kentei.com 740 796
ellysage.com 740 797
reasonistreasonious.ru 740 798
gfbzb.gov.cn 740 799
econsig.net 740 800
ardaghgroup.com 740 801
canal66.tv 740 802

DOMAINS WITH THE NEAREST RANK BY TLD .com

Domain Rank
speedytasks.com 740 788
hox-com.com 740 789
foticos.com 740 791
newmarkethealth.com 740 794
pm-kentei.com 740 796
ellysage.com 740 797
ardaghgroup.com 740 801
notebooksapp.com 740 808
tvlport.com 740 809
squizzbox.com 740 811
hsfund.com 740 812